Terminal Aerodrome Forecast
Issued by NWS Green Bay, WI

Home | Current Version | Previous Version | Text Only | Print | Product List | Glossary Off
Versions: 1 2 3 4 5 6 7 8 9 10 11 12 13 14 15 16 17 18 19 20 21 22 23 24 25 26 27 28 29 30 31 32 33 34 35 36 37 38 39 40 41

000
FTUS43 KGRB 270312 AAB
TAFGRB
TAF AMD
KGRB 270312Z 2703/2724 21012G20KT P6SM SCT015 BKN025 WS015/24040KT
      TEMPO 2703/2705 BKN015
     FM271000 26014G22KT P6SM VCSH SCT015 BKN035
      TEMPO 2710/2714 5SM -SHRA BR BKN015
     FM271500 28011G18KT P6SM SCT020 BKN035
     FM271900 23009KT P6SM BKN035=

USA.gov is the U.S. government's official web portal to all federal, state and local government web resources and services.